ANA414 RJSK-RJTT
Flight info
| Callsign | ANA414 |
|---|---|
| Flight time | N/A |
| Altitude | 39000 |
| Route | YTE Y32 RUBIS Y10 GODIN |
| Aircraft | B772/H-SDE2E3FGHIJ5LORVWXY/LB1D1 |
Departure
| Time | 2026-04-28 15:10 |
|---|---|
| Airport | Akita Airport (RJSK) |
Arrival
| Time | N/A |
|---|---|
| Airport | Tokyo Haneda International Airport (RJTT) |
| Time | Latitude | Longitude | Altitude | Speed | Heading |
|---|---|---|---|---|---|
| 2026-04-28 14:50 | 39.61243 | 140.22067 | 330 ft | 0 kts | 186° |
| 2026-04-28 15:00 | 39.61251 | 140.22069 | 329 ft | 2 kts | 186° |
| 2026-04-28 15:01 | 39.61266 | 140.22070 | 329 ft | 2 kts | 186° |
| 2026-04-28 15:01 | 39.61281 | 140.22073 | 328 ft | 2 kts | 186° |
| 2026-04-28 15:01 | 39.61297 | 140.22075 | 328 ft | 2 kts | 186° |
| 2026-04-28 15:01 | 39.61311 | 140.22076 | 327 ft | 2 kts | 186° |
| 2026-04-28 15:02 | 39.61321 | 140.22078 | 327 ft | 2 kts | 185° |
| 2026-04-28 15:02 | 39.61336 | 140.22078 | 326 ft | 2 kts | 167° |
| 2026-04-28 15:02 | 39.61351 | 140.22072 | 325 ft | 2 kts | 153° |
| 2026-04-28 15:02 | 39.61364 | 140.22063 | 325 ft | 2 kts | 139° |
| 2026-04-28 15:03 | 39.61374 | 140.22047 | 324 ft | 2 kts | 125° |
| 2026-04-28 15:03 | 39.61382 | 140.22031 | 324 ft | 2 kts | 111° |
| 2026-04-28 15:03 | 39.61385 | 140.22014 | 324 ft | 0 kts | 98° |
| 2026-04-28 15:03 | 39.61386 | 140.22008 | 324 ft | 0 kts | 96° |
| 2026-04-28 15:05 | 39.61383 | 140.22040 | 324 ft | 7 kts | 96° |
| 2026-04-28 15:06 | 39.61377 | 140.22118 | 324 ft | 9 kts | 97° |
| 2026-04-28 15:06 | 39.61368 | 140.22208 | 325 ft | 10 kts | 97° |
| 2026-04-28 15:06 | 39.61357 | 140.22311 | 326 ft | 12 kts | 96° |
| 2026-04-28 15:06 | 39.61346 | 140.22435 | 324 ft | 15 kts | 96° |
| 2026-04-28 15:07 | 39.61333 | 140.22591 | 321 ft | 19 kts | 95° |
| 2026-04-28 15:07 | 39.61319 | 140.22774 | 319 ft | 21 kts | 98° |
| 2026-04-28 15:07 | 39.61298 | 140.22969 | 319 ft | 22 kts | 97° |
| 2026-04-28 15:07 | 39.61284 | 140.23131 | 321 ft | 10 kts | 96° |
| 2026-04-28 15:08 | 39.61283 | 140.23231 | 322 ft | 11 kts | 67° |
| 2026-04-28 15:08 | 39.61351 | 140.23291 | 323 ft | 12 kts | 5° |
| 2026-04-28 15:08 | 39.61420 | 140.23300 | 324 ft | 6 kts | 4° |
| 2026-04-28 15:08 | 39.61446 | 140.23265 | 323 ft | 7 kts | 267° |
| 2026-04-28 15:09 | 39.61446 | 140.23183 | 322 ft | 12 kts | 277° |
| 2026-04-28 15:09 | 39.61485 | 140.22768 | 322 ft | 84 kts | 277° |
| 2026-04-28 15:09 | 39.61584 | 140.21686 | 319 ft | 150 kts | 275° |
| 2026-04-28 15:09 | 39.61662 | 140.20706 | 464 ft | 167 kts | 279° |
| 2026-04-28 15:10 | 39.61792 | 140.18736 | 1454 ft | 167 kts | 267° |
| 2026-04-28 15:10 | 39.61490 | 140.17339 | 1855 ft | 167 kts | 244° |
| 2026-04-28 15:10 | 39.60693 | 140.16127 | 1873 ft | 186 kts | 216° |
| 2026-04-28 15:10 | 39.59418 | 140.15503 | 1910 ft | 209 kts | 183° |
| 2026-04-28 15:11 | 39.57880 | 140.15698 | 2114 ft | 228 kts | 169° |
| 2026-04-28 15:11 | 39.56321 | 140.16055 | 2806 ft | 224 kts | 169° |
| 2026-04-28 15:11 | 39.54785 | 140.16414 | 3387 ft | 225 kts | 170° |
| 2026-04-28 15:11 | 39.53212 | 140.16780 | 3793 ft | 235 kts | 171° |
| 2026-04-28 15:12 | 39.51514 | 140.17174 | 3962 ft | 256 kts | 171° |
| 2026-04-28 15:12 | 39.49675 | 140.17600 | 4318 ft | 270 kts | 172° |
| 2026-04-28 15:12 | 39.47828 | 140.18028 | 5086 ft | 267 kts | 173° |
| 2026-04-28 15:12 | 39.45983 | 140.18455 | 5710 ft | 270 kts | 174° |
| 2026-04-28 15:13 | 39.44117 | 140.18889 | 6354 ft | 271 kts | 174° |
| 2026-04-28 15:13 | 39.42245 | 140.19322 | 6980 ft | 273 kts | 175° |
| 2026-04-28 15:13 | 39.40354 | 140.19760 | 7601 ft | 275 kts | 176° |
| 2026-04-28 15:13 | 39.38449 | 140.20201 | 8259 ft | 276 kts | 176° |
| 2026-04-28 15:14 | 39.36531 | 140.20644 | 8838 ft | 279 kts | 177° |
| 2026-04-28 15:14 | 39.34620 | 140.21086 | 9510 ft | 279 kts | 178° |
| 2026-04-28 15:14 | 39.32695 | 140.21710 | 10083 ft | 289 kts | 169° |
| 2026-04-28 15:14 | 39.30769 | 140.22710 | 10437 ft | 305 kts | 166° |
| 2026-04-28 15:15 | 39.28742 | 140.23827 | 10631 ft | 325 kts | 166° |
| 2026-04-28 15:15 | 39.26570 | 140.25020 | 10941 ft | 341 kts | 165° |
| 2026-04-28 15:15 | 39.24329 | 140.26244 | 11226 ft | 357 kts | 166° |
| 2026-04-28 15:15 | 39.21974 | 140.27525 | 11559 ft | 372 kts | 165° |
| 2026-04-28 15:16 | 39.19542 | 140.28850 | 12143 ft | 380 kts | 166° |
| 2026-04-28 15:16 | 39.17078 | 140.30193 | 13011 ft | 381 kts | 166° |
| 2026-04-28 15:16 | 39.14611 | 140.31535 | 13881 ft | 384 kts | 166° |
| 2026-04-28 15:16 | 39.12120 | 140.32889 | 14756 ft | 387 kts | 167° |
| 2026-04-28 15:17 | 39.09611 | 140.34097 | 15571 ft | 383 kts | 174° |
| 2026-04-28 15:17 | 39.06964 | 140.34776 | 16175 ft | 382 kts | 184° |
| 2026-04-28 15:17 | 39.04298 | 140.34915 | 16902 ft | 381 kts | 189° |
| 2026-04-28 15:17 | 39.01651 | 140.34937 | 17899 ft | 378 kts | 190° |
| 2026-04-28 15:18 | 38.99008 | 140.34959 | 18766 ft | 378 kts | 191° |
| 2026-04-28 15:18 | 38.96347 | 140.34985 | 19472 ft | 381 kts | 192° |
| 2026-04-28 15:18 | 38.93665 | 140.35014 | 20098 ft | 386 kts | 193° |
| 2026-04-28 15:18 | 38.90955 | 140.35045 | 20641 ft | 393 kts | 192° |
| 2026-04-28 15:19 | 38.88191 | 140.35080 | 21247 ft | 397 kts | 193° |
| 2026-04-28 15:19 | 38.85388 | 140.35120 | 21913 ft | 399 kts | 193° |
| 2026-04-28 15:19 | 38.82585 | 140.35161 | 22543 ft | 401 kts | 194° |
| 2026-04-28 15:19 | 38.79787 | 140.35199 | 23161 ft | 403 kts | 194° |
| 2026-04-28 15:20 | 38.76928 | 140.35240 | 23755 ft | 407 kts | 195° |
| 2026-04-28 15:20 | 38.74085 | 140.35275 | 24187 ft | 414 kts | 194° |
| 2026-04-28 15:20 | 38.71170 | 140.35316 | 24735 ft | 418 kts | 195° |
| 2026-04-28 15:20 | 38.68210 | 140.35358 | 25217 ft | 425 kts | 194° |
| 2026-04-28 15:21 | 38.65230 | 140.35402 | 25838 ft | 427 kts | 194° |
| 2026-04-28 15:21 | 38.62227 | 140.35446 | 26438 ft | 430 kts | 194° |
| 2026-04-28 15:21 | 38.59209 | 140.35489 | 26957 ft | 434 kts | 194° |
| 2026-04-28 15:21 | 38.56184 | 140.35533 | 27487 ft | 438 kts | 195° |
| 2026-04-28 15:22 | 38.53066 | 140.35576 | 27931 ft | 444 kts | 194° |
| 2026-04-28 15:22 | 38.49920 | 140.35622 | 28489 ft | 448 kts | 194° |
| 2026-04-28 15:22 | 38.46805 | 140.35666 | 28962 ft | 453 kts | 194° |
| 2026-04-28 15:22 | 38.43604 | 140.35712 | 29439 ft | 457 kts | 194° |
| 2026-04-28 15:23 | 38.40371 | 140.35878 | 30088 ft | 469 kts | 189° |
| 2026-04-28 15:23 | 38.37048 | 140.36616 | 30766 ft | 489 kts | 181° |
| 2026-04-28 15:23 | 38.33779 | 140.37913 | 31607 ft | 496 kts | 176° |
| 2026-04-28 15:23 | 38.30485 | 140.39368 | 32313 ft | 496 kts | 175° |
| 2026-04-28 15:24 | 38.27204 | 140.40816 | 32816 ft | 499 kts | 175° |
| 2026-04-28 15:24 | 38.23905 | 140.42264 | 33287 ft | 503 kts | 175° |
| 2026-04-28 15:24 | 38.20589 | 140.43716 | 33860 ft | 504 kts | 175° |
| 2026-04-28 15:24 | 38.17278 | 140.45167 | 34615 ft | 502 kts | 175° |
| 2026-04-28 15:25 | 38.13931 | 140.46631 | 35416 ft | 498 kts | 175° |
| 2026-04-28 15:25 | 38.10612 | 140.48076 | 36042 ft | 497 kts | 175° |
| 2026-04-28 15:25 | 38.07249 | 140.49533 | 36478 ft | 500 kts | 175° |
| 2026-04-28 15:25 | 38.03867 | 140.50996 | 36964 ft | 501 kts | 175° |
| 2026-04-28 15:26 | 38.00500 | 140.52457 | 37719 ft | 497 kts | 175° |
| 2026-04-28 15:26 | 37.97182 | 140.53893 | 38244 ft | 496 kts | 174° |
| 2026-04-28 15:26 | 37.93881 | 140.55315 | 38541 ft | 499 kts | 174° |
| 2026-04-28 15:26 | 37.90543 | 140.56753 | 38908 ft | 500 kts | 174° |
| 2026-04-28 15:27 | 37.87233 | 140.58176 | 38903 ft | 503 kts | 174° |
| 2026-04-28 15:27 | 37.80542 | 140.61053 | 38690 ft | 493 kts | 176° |
| 2026-04-28 15:27 | 37.77264 | 140.62079 | 37755 ft | 479 kts | 185° |
| 2026-04-28 15:28 | 37.73994 | 140.62457 | 36847 ft | 463 kts | 193° |
| 2026-04-28 15:28 | 37.70847 | 140.62228 | 36150 ft | 445 kts | 201° |
| 2026-04-28 15:28 | 37.67793 | 140.61504 | 35541 ft | 432 kts | 206° |
| 2026-04-28 15:28 | 37.64849 | 140.60673 | 34894 ft | 430 kts | 206° |
| 2026-04-28 15:29 | 37.61912 | 140.59834 | 34161 ft | 429 kts | 206° |
| 2026-04-28 15:29 | 37.58954 | 140.58987 | 33431 ft | 429 kts | 206° |
| 2026-04-28 15:29 | 37.56061 | 140.58159 | 32749 ft | 428 kts | 206° |
| 2026-04-28 15:29 | 37.53144 | 140.57323 | 31970 ft | 429 kts | 206° |
| 2026-04-28 15:30 | 37.50199 | 140.56477 | 31182 ft | 430 kts | 205° |
| 2026-04-28 15:30 | 37.47283 | 140.55643 | 30486 ft | 428 kts | 205° |
| 2026-04-28 15:30 | 37.44321 | 140.54794 | 30063 ft | 433 kts | 205° |
| 2026-04-28 15:30 | 37.41356 | 140.53938 | 29586 ft | 440 kts | 205° |
| 2026-04-28 15:31 | 37.38626 | 140.53160 | 29125 ft | 439 kts | 205° |